createdAt,value
2018-09-05T00:02:11.211Z,17.30
2018-09-05T00:04:38.720Z,17.30
2018-09-05T00:07:06.272Z,17.30
2018-09-05T00:09:33.864Z,17.30
2018-09-05T00:12:01.414Z,17.20
2018-09-05T00:14:28.919Z,17.20
2018-09-05T00:16:56.489Z,17.20
2018-09-05T00:19:23.985Z,17.20
2018-09-05T00:21:51.492Z,17.20
2018-09-05T00:24:19.025Z,17.20
2018-09-05T00:26:46.544Z,17.20
2018-09-05T00:29:14.075Z,17.20
2018-09-05T00:31:41.610Z,17.20
2018-09-05T00:34:09.084Z,17.20
2018-09-05T00:36:36.610Z,17.20
2018-09-05T00:39:06.236Z,17.10
2018-09-05T00:41:33.740Z,17.10
2018-09-05T00:44:01.261Z,17.10
2018-09-05T00:46:28.753Z,17.10
2018-09-05T00:48:56.250Z,17.10
2018-09-05T00:51:23.754Z,17.20
2018-09-05T00:53:51.310Z,17.10
2018-09-05T00:56:18.820Z,17.10
2018-09-05T00:58:46.338Z,17.10
2018-09-05T01:01:13.876Z,17.10
2018-09-05T01:03:41.482Z,17.10
2018-09-05T01:06:08.944Z,17.10
2018-09-05T01:08:36.545Z,17.10
2018-09-05T01:11:04.176Z,17.10
2018-09-05T01:13:31.664Z,17.10
2018-09-05T01:15:59.140Z,17.10
2018-09-05T01:18:26.620Z,17.10
2018-09-05T01:20:54.194Z,17.10
2018-09-05T01:23:21.728Z,17.10
2018-09-05T01:25:49.212Z,17.10
2018-09-05T01:28:16.782Z,17.10
2018-09-05T01:30:44.309Z,17.10
2018-09-05T01:33:11.834Z,17.10
2018-09-05T01:35:39.309Z,17.10
2018-09-05T01:38:06.826Z,17.10
2018-09-05T01:40:34.404Z,17.10
2018-09-05T01:43:01.922Z,17.10
2018-09-05T01:45:29.443Z,17.10
2018-09-05T01:47:56.939Z,17.10
2018-09-05T01:50:29.992Z,17.10
2018-09-05T01:52:57.513Z,17.10
2018-09-05T01:55:25.100Z,17.10
2018-09-05T01:57:52.684Z,17.10
2018-09-05T02:00:25.878Z,17.10
2018-09-05T02:02:53.540Z,17.10
2018-09-05T02:05:21.017Z,17.10
2018-09-05T02:07:48.527Z,17.20
2018-09-05T02:10:16.051Z,17.20
2018-09-05T02:12:43.543Z,17.20
2018-09-05T02:15:11.079Z,17.20
2018-09-05T02:17:38.518Z,17.20
2018-09-05T02:20:06.064Z,17.20
2018-09-05T02:22:33.576Z,17.20
2018-09-05T02:25:01.108Z,17.20
2018-09-05T02:27:28.592Z,17.20
2018-09-05T02:29:56.153Z,17.20
2018-09-05T02:32:23.666Z,17.20
2018-09-05T02:34:51.184Z,17.20
2018-09-05T02:37:18.734Z,17.20
2018-09-05T02:39:46.281Z,17.20
2018-09-05T02:42:13.797Z,17.20
2018-09-05T02:44:41.360Z,17.20
2018-09-05T02:47:08.880Z,17.20
2018-09-05T02:49:36.393Z,17.20
2018-09-05T02:52:04.072Z,17.20
2018-09-05T02:54:31.618Z,17.20
2018-09-05T02:56:59.111Z,17.20
2018-09-05T02:59:26.623Z,17.20
2018-09-05T03:01:54.139Z,17.20
2018-09-05T03:04:21.698Z,17.20
2018-09-05T03:06:49.235Z,17.20
2018-09-05T03:09:16.726Z,17.20
2018-09-05T03:11:44.271Z,17.20
2018-09-05T03:14:11.798Z,17.20
2018-09-05T03:16:39.273Z,17.20
2018-09-05T03:19:06.830Z,17.20
2018-09-05T03:21:34.367Z,17.20
2018-09-05T03:24:01.868Z,17.20
2018-09-05T03:26:29.387Z,17.20
2018-09-05T03:28:56.901Z,17.20
2018-09-05T03:31:24.381Z,17.20
2018-09-05T03:33:51.885Z,17.20
2018-09-05T03:36:19.396Z,17.20
2018-09-05T03:38:46.869Z,17.20
2018-09-05T03:41:14.369Z,17.20
2018-09-05T03:43:41.865Z,17.20
2018-09-05T03:46:09.404Z,17.20
2018-09-05T03:48:36.901Z,17.20
2018-09-05T03:51:04.435Z,17.20
2018-09-05T03:53:32.000Z,17.20
2018-09-05T03:55:59.514Z,17.20
2018-09-05T03:58:27.253Z,17.30
2018-09-05T04:00:54.792Z,17.20
2018-09-05T04:03:22.341Z,17.30
2018-09-05T04:05:49.862Z,17.20
2018-09-05T04:08:17.401Z,17.20
2018-09-05T04:10:44.897Z,17.20
2018-09-05T04:13:12.421Z,17.20
2018-09-05T04:15:39.902Z,17.20
2018-09-05T04:18:07.387Z,17.20
2018-09-05T04:20:34.893Z,17.20
2018-09-05T04:23:02.427Z,17.20
2018-09-05T04:25:29.941Z,17.20
2018-09-05T04:27:57.434Z,17.20
2018-09-05T04:30:24.936Z,17.20
2018-09-05T04:32:52.480Z,17.20
2018-09-05T04:35:19.989Z,17.20
2018-09-05T04:37:47.539Z,17.20
2018-09-05T04:40:15.058Z,17.20
2018-09-05T04:42:42.668Z,17.10
2018-09-05T04:45:10.226Z,17.10
2018-09-05T04:47:37.694Z,17.10
2018-09-05T04:50:05.354Z,17.10
2018-09-05T04:52:32.922Z,17.10
2018-09-05T04:55:00.391Z,17.10
2018-09-05T04:57:28.176Z,17.10
2018-09-05T04:59:55.705Z,17.00
2018-09-05T05:02:23.314Z,17.00
2018-09-05T05:04:50.869Z,17.00
2018-09-05T05:07:18.372Z,17.00
2018-09-05T05:09:45.883Z,17.00
2018-09-05T05:12:13.389Z,17.00
2018-09-05T05:14:40.975Z,17.00
2018-09-05T05:17:08.486Z,17.00
2018-09-05T05:19:35.990Z,17.00
2018-09-05T05:22:03.526Z,17.10
2018-09-05T05:24:31.006Z,17.10
2018-09-05T05:26:58.532Z,17.10
2018-09-05T05:29:26.040Z,17.10
2018-09-05T05:31:53.552Z,17.10
2018-09-05T05:34:21.113Z,17.10
2018-09-05T05:36:48.636Z,17.10
2018-09-05T05:39:16.164Z,17.20
2018-09-05T05:41:43.651Z,17.20
2018-09-05T05:44:11.150Z,17.20
2018-09-05T05:46:38.729Z,17.30
2018-09-05T05:49:06.176Z,17.30
2018-09-05T05:51:33.677Z,17.30
2018-09-05T05:54:01.206Z,17.30
2018-09-05T05:56:28.790Z,17.40
2018-09-05T05:58:56.351Z,17.40
2018-09-05T06:01:23.871Z,17.40
2018-09-05T06:03:51.467Z,17.40
2018-09-05T06:06:19.032Z,17.50
2018-09-05T06:08:46.523Z,17.50
2018-09-05T06:11:14.042Z,17.50
2018-09-05T06:13:41.545Z,17.60
2018-09-05T06:16:09.054Z,17.50
2018-09-05T06:18:36.581Z,17.50
2018-09-05T06:21:04.193Z,17.60
2018-09-05T06:23:31.676Z,17.60
2018-09-05T06:25:59.178Z,17.70
2018-09-05T06:28:26.681Z,17.80
2018-09-05T06:30:54.221Z,17.80
2018-09-05T06:33:21.725Z,17.90
2018-09-05T06:35:49.237Z,17.90
2018-09-05T06:38:16.777Z,18.00
2018-09-05T06:40:44.328Z,18.10
2018-09-05T06:43:11.868Z,18.10
2018-09-05T06:45:39.385Z,18.10
2018-09-05T06:48:06.929Z,18.20
2018-09-05T06:50:34.477Z,18.30
2018-09-05T06:53:02.003Z,18.30
2018-09-05T06:55:29.563Z,18.40
2018-09-05T06:57:57.189Z,18.30
2018-09-05T07:00:24.789Z,18.40
2018-09-05T07:02:52.360Z,18.40
2018-09-05T07:05:20.132Z,18.40
2018-09-05T07:07:47.785Z,18.50
2018-09-05T07:10:15.311Z,18.60
2018-09-05T07:12:42.899Z,18.60
2018-09-05T07:15:10.441Z,18.70
2018-09-05T07:17:37.976Z,18.70
2018-09-05T07:20:05.505Z,18.80
2018-09-05T07:22:33.078Z,18.90
2018-09-05T07:25:00.694Z,19.00
2018-09-05T07:27:28.408Z,19.10
2018-09-05T07:29:55.875Z,19.10
2018-09-05T07:32:23.403Z,19.10
2018-09-05T07:34:50.921Z,19.20
2018-09-05T07:37:18.487Z,19.30
2018-09-05T07:39:46.102Z,19.40
2018-09-05T07:42:13.614Z,19.40
2018-09-05T07:44:41.167Z,19.50
2018-09-05T07:47:08.791Z,19.50
2018-09-05T07:49:36.324Z,19.60
2018-09-05T07:52:03.836Z,19.70
2018-09-05T07:54:31.426Z,19.80
2018-09-05T07:56:58.943Z,19.90
2018-09-05T07:59:26.553Z,20.00
2018-09-05T08:01:54.141Z,20.00
2018-09-05T08:04:21.775Z,20.00
2018-09-05T08:06:49.302Z,20.00
2018-09-05T08:09:16.855Z,20.10
2018-09-05T08:11:44.394Z,20.10
2018-09-05T08:14:11.969Z,20.20
2018-09-05T08:16:39.481Z,20.30
2018-09-05T08:19:07.093Z,20.40
2018-09-05T08:21:34.665Z,20.50
2018-09-05T08:24:02.424Z,20.60
2018-09-05T08:26:29.936Z,20.70
2018-09-05T08:28:57.584Z,20.70
2018-09-05T08:31:25.092Z,20.70
2018-09-05T08:33:52.661Z,20.70
2018-09-05T08:36:20.455Z,20.80
2018-09-05T08:38:47.862Z,20.80
2018-09-05T08:41:15.330Z,20.70
2018-09-05T08:43:43.005Z,20.70
2018-09-05T08:46:10.507Z,20.70
2018-09-05T08:48:38.113Z,20.70
2018-09-05T08:51:05.579Z,20.70
2018-09-05T08:53:33.143Z,20.70
2018-09-05T08:56:00.873Z,20.80
2018-09-05T08:58:28.382Z,20.90
2018-09-05T09:00:55.965Z,20.90
2018-09-05T09:03:23.530Z,21.00
2018-09-05T09:05:51.079Z,21.10
2018-09-05T09:08:18.680Z,21.10
2018-09-05T09:10:46.293Z,21.20
2018-09-05T09:13:13.823Z,21.30
2018-09-05T09:15:41.487Z,21.40
2018-09-05T09:18:09.116Z,21.40
2018-09-05T09:20:36.659Z,21.50
2018-09-05T09:23:04.216Z,21.60
2018-09-05T09:25:31.785Z,21.70
2018-09-05T09:27:59.526Z,21.70
2018-09-05T09:30:27.052Z,21.80
2018-09-05T09:32:54.600Z,22.00
2018-09-05T09:35:22.188Z,22.00
2018-09-05T09:37:49.669Z,22.10
2018-09-05T09:40:17.362Z,22.20
2018-09-05T09:42:44.896Z,22.20
2018-09-05T09:45:12.366Z,22.30
2018-09-05T09:47:39.928Z,22.40
2018-09-05T09:50:07.538Z,22.50
2018-09-05T09:52:38.267Z,22.60
2018-09-05T09:55:06.792Z,22.70
2018-09-05T09:57:34.386Z,22.90
2018-09-05T10:00:01.929Z,23.00
2018-09-05T10:02:35.008Z,23.10
2018-09-05T10:07:16.178Z,23.30
2018-09-05T10:09:49.379Z,23.50
2018-09-05T10:12:22.602Z,23.60
2018-09-05T10:15:53.140Z,23.80
2018-09-05T10:18:26.241Z,24.20
2018-09-05T10:20:54.028Z,25.40
2018-09-05T10:23:21.719Z,26.90
2018-09-05T10:25:49.254Z,28.70
2018-09-05T10:28:17.199Z,30.70
2018-09-05T10:30:45.021Z,32.60
2018-09-05T10:33:12.579Z,34.40
2018-09-05T10:35:40.121Z,36.30
2018-09-05T10:38:07.740Z,38.10
2018-09-05T10:40:35.299Z,39.50
2018-09-05T10:43:03.048Z,40.80
2018-09-05T10:45:30.533Z,41.90
2018-09-05T10:47:58.143Z,42.90
2018-09-05T10:50:25.657Z,43.70
2018-09-05T10:52:53.213Z,44.30
2018-09-05T10:55:20.739Z,45.00
2018-09-05T10:57:48.281Z,45.40
2018-09-05T11:00:15.924Z,45.90
2018-09-05T11:02:43.517Z,46.30
2018-09-05T11:05:11.129Z,46.60
2018-09-05T11:07:38.719Z,46.90
2018-09-05T11:10:06.256Z,47.30
2018-09-05T11:12:33.960Z,47.60
2018-09-05T11:15:01.502Z,47.80
2018-09-05T11:17:29.061Z,48.10
2018-09-05T11:19:56.571Z,48.20
2018-09-05T11:22:24.115Z,48.40
2018-09-05T11:24:51.666Z,48.70
2018-09-05T11:27:19.171Z,49.00
2018-09-05T11:29:46.693Z,49.30
2018-09-05T11:32:14.220Z,49.50
2018-09-05T11:34:41.779Z,49.70
2018-09-05T11:37:09.284Z,50.00
2018-09-05T11:39:36.870Z,50.20
2018-09-05T11:42:04.401Z,50.20
2018-09-05T11:44:31.928Z,50.30
2018-09-05T11:46:59.441Z,50.50
2018-09-05T11:49:26.975Z,50.60
2018-09-05T11:51:54.487Z,50.70
2018-09-05T11:54:22.095Z,50.80
2018-09-05T11:56:49.612Z,50.80
2018-09-05T11:59:17.151Z,50.80
2018-09-05T12:01:44.823Z,50.80
2018-09-05T12:04:12.358Z,51.00
2018-09-05T12:06:39.959Z,51.10
2018-09-05T12:09:09.149Z,51.20
2018-09-05T12:11:36.764Z,51.40
2018-09-05T12:14:04.275Z,51.20
2018-09-05T12:16:33.415Z,51.00
2018-09-05T12:19:00.975Z,50.90
2018-09-05T12:21:28.495Z,50.80
2018-09-05T12:23:56.082Z,50.80
2018-09-05T12:26:23.606Z,50.60
2018-09-05T12:28:51.161Z,50.40
2018-09-05T12:31:18.686Z,50.00
2018-09-05T12:33:46.221Z,49.80
2018-09-05T12:36:13.719Z,49.70
2018-09-05T12:38:41.268Z,49.50
2018-09-05T12:41:08.838Z,49.40
2018-09-05T12:43:36.357Z,49.30
2018-09-05T12:46:03.954Z,49.30
2018-09-05T12:48:31.477Z,49.20
2018-09-05T12:50:59.129Z,48.60
2018-09-05T12:53:26.669Z,48.20
2018-09-05T12:55:54.273Z,48.00
2018-09-05T12:58:21.818Z,47.80
2018-09-05T13:00:49.398Z,47.60
2018-09-05T13:03:17.127Z,47.40
2018-09-05T13:05:44.659Z,47.20
2018-09-05T13:08:12.213Z,46.90
2018-09-05T13:10:39.740Z,46.60
2018-09-05T13:13:07.291Z,46.20
2018-09-05T13:15:34.978Z,45.90
2018-09-05T13:18:09.068Z,45.70
2018-09-05T13:20:36.669Z,45.50
2018-09-05T13:23:04.206Z,45.30
2018-09-05T13:25:31.829Z,44.90
2018-09-05T13:27:59.449Z,44.30
2018-09-05T13:30:27.121Z,43.70
2018-09-05T13:32:54.743Z,43.20
2018-09-05T13:35:22.391Z,42.70
2018-09-05T13:37:50.079Z,42.10
2018-09-05T13:40:17.673Z,41.50
2018-09-05T13:42:45.245Z,41.10
2018-09-05T13:45:12.860Z,40.60
2018-09-05T13:47:40.401Z,40.20
2018-09-05T13:50:07.988Z,39.90
2018-09-05T13:52:35.571Z,39.40
2018-09-05T13:55:03.208Z,39.00
2018-09-05T13:57:30.782Z,38.50
2018-09-05T13:59:58.338Z,38.00
2018-09-05T14:02:25.935Z,37.70
2018-09-05T14:04:53.463Z,37.70
2018-09-05T14:07:21.000Z,37.60
2018-09-05T14:09:48.525Z,37.40
2018-09-05T14:12:16.040Z,36.90
2018-09-05T14:14:43.695Z,36.60
2018-09-05T14:17:11.426Z,36.60
2018-09-05T14:19:38.975Z,36.40
2018-09-05T14:22:06.502Z,36.20
2018-09-05T14:24:34.223Z,36.00
2018-09-05T14:27:01.787Z,35.80
2018-09-05T14:29:29.317Z,35.70
2018-09-05T14:31:56.849Z,35.70
2018-09-05T14:34:24.422Z,35.60
2018-09-05T14:36:52.054Z,35.60
2018-09-05T14:39:19.667Z,35.20
2018-09-05T14:41:47.216Z,34.50
2018-09-05T14:44:14.740Z,34.10
2018-09-05T14:46:42.255Z,33.90
2018-09-05T14:49:09.808Z,33.90
2018-09-05T14:51:37.395Z,34.00
2018-09-05T14:54:04.962Z,34.20
2018-09-05T14:56:32.461Z,34.20
2018-09-05T14:59:00.043Z,34.10
2018-09-05T15:01:27.563Z,34.10
2018-09-05T15:03:55.137Z,34.00
2018-09-05T15:06:22.730Z,34.00
2018-09-05T15:08:50.249Z,33.90
2018-09-05T15:11:17.983Z,33.70
2018-09-05T15:13:45.548Z,33.30
2018-09-05T15:16:13.119Z,32.70
2018-09-05T15:18:40.694Z,32.10
2018-09-05T15:21:08.573Z,31.60
2018-09-05T15:23:36.099Z,31.40
2018-09-05T15:26:03.713Z,31.50
2018-09-05T15:28:31.265Z,31.40
2018-09-05T15:30:58.857Z,31.40
2018-09-05T15:33:26.409Z,31.40
2018-09-05T15:35:53.944Z,31.30
2018-09-05T15:38:21.575Z,31.20
2018-09-05T15:40:49.191Z,31.10
2018-09-05T15:43:16.719Z,31.00
2018-09-05T15:45:44.339Z,30.80
2018-09-05T15:48:11.999Z,30.70
2018-09-05T15:50:39.575Z,30.50
2018-09-05T15:53:07.167Z,30.40
2018-09-05T15:55:34.754Z,30.20
2018-09-05T15:58:02.276Z,30.00
2018-09-05T16:00:29.830Z,29.80
2018-09-05T16:02:57.394Z,29.80
2018-09-05T16:05:25.577Z,29.60
2018-09-05T16:07:53.147Z,29.40
2018-09-05T16:10:20.717Z,29.20
2018-09-05T16:12:48.231Z,29.10
2018-09-05T16:15:15.812Z,28.90
2018-09-05T16:17:43.357Z,28.80
2018-09-05T16:20:10.872Z,28.60
2018-09-05T16:22:38.404Z,28.40
2018-09-05T16:25:06.017Z,28.30
2018-09-05T16:27:33.596Z,28.20
2018-09-05T16:30:01.112Z,28.10
2018-09-05T16:32:28.702Z,27.90
2018-09-05T16:34:56.263Z,27.80
2018-09-05T16:37:23.875Z,27.60
2018-09-05T16:39:51.451Z,27.50
2018-09-05T16:42:18.977Z,27.40
2018-09-05T16:44:46.606Z,27.30
2018-09-05T16:47:14.206Z,27.20
2018-09-05T16:49:41.725Z,27.10
2018-09-05T16:52:09.285Z,27.00
2018-09-05T16:54:36.848Z,26.90
2018-09-05T16:57:04.430Z,26.80
2018-09-05T16:59:31.962Z,26.60
2018-09-05T17:01:59.628Z,26.60
2018-09-05T17:04:27.164Z,26.40
2018-09-05T17:06:54.763Z,26.40
2018-09-05T17:09:22.315Z,26.30
2018-09-05T17:11:49.892Z,26.20
2018-09-05T17:14:17.436Z,26.10
2018-09-05T17:16:45.021Z,26.00
2018-09-05T17:19:12.588Z,25.90
2018-09-05T17:21:40.154Z,25.80
2018-09-05T17:24:07.752Z,25.70
2018-09-05T17:26:35.312Z,25.70
2018-09-05T17:29:02.896Z,25.50
2018-09-05T17:31:30.388Z,25.50
2018-09-05T17:33:57.926Z,25.40
2018-09-05T17:36:25.441Z,25.30
2018-09-05T17:38:53.046Z,25.20
2018-09-05T17:41:20.652Z,25.10
2018-09-05T17:43:48.174Z,25.00
2018-09-05T17:46:15.758Z,24.90
2018-09-05T17:48:43.316Z,24.80
2018-09-05T17:51:10.992Z,24.80
2018-09-05T17:53:38.722Z,24.70
2018-09-05T17:56:06.435Z,24.60
2018-09-05T17:58:34.112Z,24.50
2018-09-05T18:01:03.600Z,24.40
2018-09-05T18:03:31.197Z,24.30
2018-09-05T18:05:59.674Z,24.20
2018-09-05T18:08:27.241Z,24.10
2018-09-05T18:10:54.827Z,24.10
2018-09-05T18:13:22.389Z,24.00
2018-09-05T18:15:49.985Z,23.90
2018-09-05T18:18:17.578Z,23.80
2018-09-05T18:20:45.156Z,23.80
2018-09-05T18:23:14.149Z,23.70
2018-09-05T18:25:41.937Z,23.60
2018-09-05T18:28:09.654Z,23.50
2018-09-05T18:30:37.252Z,23.50
2018-09-05T18:33:05.036Z,23.50
2018-09-05T18:35:32.711Z,23.40
2018-09-05T18:38:00.253Z,23.30
2018-09-05T18:40:27.894Z,23.30
2018-09-05T18:42:55.445Z,23.30
2018-09-05T18:45:23.136Z,23.20
2018-09-05T18:47:50.795Z,23.20
2018-09-05T18:50:18.534Z,23.10
2018-09-05T18:52:46.236Z,23.10
2018-09-05T18:55:13.867Z,23.00
2018-09-05T18:57:41.590Z,23.00
2018-09-05T19:00:09.405Z,22.90
2018-09-05T19:02:37.065Z,22.90
2018-09-05T19:05:04.924Z,22.90
2018-09-05T19:07:32.572Z,22.80
2018-09-05T19:10:00.208Z,22.80
2018-09-05T19:12:27.899Z,22.70
2018-09-05T19:14:55.842Z,22.70
2018-09-05T19:17:23.549Z,22.70
2018-09-05T19:19:51.269Z,22.60
2018-09-05T19:22:18.889Z,22.50
2018-09-05T19:24:46.533Z,22.50
2018-09-05T19:27:14.165Z,22.40
2018-09-05T19:29:41.801Z,22.40
2018-09-05T19:32:09.461Z,22.30
2018-09-05T19:34:37.163Z,22.30
2018-09-05T19:37:04.944Z,22.20
2018-09-05T19:39:32.712Z,22.20
2018-09-05T19:42:00.307Z,22.10
2018-09-05T19:44:27.933Z,22.00
2018-09-05T19:46:55.619Z,22.00
2018-09-05T19:49:23.286Z,21.90
2018-09-05T19:51:50.995Z,21.90
2018-09-05T19:54:18.683Z,21.90
2018-09-05T19:56:46.390Z,21.80
2018-09-05T19:59:14.153Z,21.80
2018-09-05T20:01:41.732Z,21.70
2018-09-05T20:04:09.408Z,21.70
2018-09-05T20:06:37.103Z,21.60
2018-09-05T20:09:06.508Z,21.50
2018-09-05T20:11:34.147Z,21.60
2018-09-05T20:14:01.863Z,21.60
2018-09-05T20:16:29.524Z,21.60
2018-09-05T20:18:57.181Z,21.50
2018-09-05T20:21:24.776Z,21.50
2018-09-05T20:23:52.599Z,21.40
2018-09-05T20:26:20.170Z,21.40
2018-09-05T20:28:47.817Z,21.40
2018-09-05T20:31:15.537Z,21.40
2018-09-05T20:33:43.213Z,21.30
2018-09-05T20:36:10.792Z,21.30
2018-09-05T20:38:38.355Z,21.30
2018-09-05T20:41:05.960Z,21.20
2018-09-05T20:43:33.553Z,21.20
2018-09-05T20:46:01.101Z,21.10
2018-09-05T20:48:28.786Z,21.10
2018-09-05T20:50:56.390Z,21.00
2018-09-05T20:53:24.161Z,21.00
2018-09-05T20:55:51.738Z,21.00
2018-09-05T20:58:19.372Z,20.90
2018-09-05T21:00:46.904Z,20.90
2018-09-05T21:03:14.654Z,20.90
2018-09-05T21:05:42.287Z,20.90
2018-09-05T21:08:10.224Z,20.90
2018-09-05T21:10:38.020Z,20.80
2018-09-05T21:13:05.948Z,20.80
2018-09-05T21:15:33.609Z,20.80
2018-09-05T21:18:01.440Z,20.70
2018-09-05T21:20:29.085Z,20.60
2018-09-05T21:22:56.784Z,20.60
2018-09-05T21:25:24.477Z,20.50
2018-09-05T21:27:52.109Z,20.50
2018-09-05T21:30:19.830Z,20.50
2018-09-05T21:32:47.685Z,20.50
2018-09-05T21:35:15.380Z,20.50
2018-09-05T21:37:43.017Z,20.50
2018-09-05T21:40:10.765Z,20.50
2018-09-05T21:42:38.342Z,20.50
2018-09-05T21:45:06.244Z,20.40
2018-09-05T21:47:33.827Z,20.40
2018-09-05T21:50:01.424Z,20.40
2018-09-05T21:52:29.016Z,20.40
2018-09-05T21:54:56.631Z,20.30
2018-09-05T21:57:24.321Z,20.30
2018-09-05T21:59:52.006Z,20.30
2018-09-05T22:02:19.603Z,20.30
2018-09-05T22:04:47.256Z,20.20
2018-09-05T22:07:14.871Z,20.10
2018-09-05T22:09:42.481Z,20.10
2018-09-05T22:12:10.078Z,20.10
2018-09-05T22:14:37.734Z,20.10
2018-09-05T22:17:05.530Z,20.00
2018-09-05T22:19:33.127Z,20.00
2018-09-05T22:22:00.791Z,20.00
2018-09-05T22:24:28.440Z,20.00
2018-09-05T22:26:56.062Z,20.00
2018-09-05T22:29:23.635Z,20.00
2018-09-05T22:31:51.328Z,20.00
2018-09-05T22:34:18.936Z,19.90
2018-09-05T22:36:46.568Z,19.90
2018-09-05T22:39:14.191Z,19.90
2018-09-05T22:41:41.845Z,19.80
2018-09-05T22:44:20.867Z,19.80
2018-09-05T22:46:59.929Z,19.80
2018-09-05T22:52:06.094Z,19.70
2018-09-05T22:56:53.625Z,19.70
2018-09-05T22:59:34.311Z,19.50
2018-09-05T23:02:15.006Z,19.30
2018-09-05T23:05:54.964Z,19.30
2018-09-05T23:08:36.158Z,19.40
2018-09-05T23:11:15.183Z,19.30
2018-09-05T23:13:55.060Z,19.30
2018-09-05T23:16:34.090Z,19.40
2018-09-05T23:19:20.695Z,19.30
2018-09-05T23:21:48.343Z,19.30
2018-09-05T23:24:15.932Z,19.30
2018-09-05T23:26:43.689Z,19.30
2018-09-05T23:29:11.369Z,19.30
2018-09-05T23:31:39.017Z,19.30
2018-09-05T23:34:06.680Z,19.30
2018-09-05T23:36:34.273Z,19.30
2018-09-05T23:39:01.945Z,19.30
2018-09-05T23:41:29.567Z,19.30
2018-09-05T23:43:57.187Z,19.30
2018-09-05T23:46:24.758Z,19.20
2018-09-05T23:48:52.348Z,19.20
2018-09-05T23:51:20.026Z,19.20
2018-09-05T23:53:47.612Z,19.10
2018-09-05T23:56:15.245Z,19.10
2018-09-05T23:58:42.860Z,19.10
